sensor_id;sensor_type;location;lat;lon;timestamp;P1;durP1;ratioP1;P2;durP2;ratioP2
19919;SDS011;10122;50.074;19.920;2022-08-04T00:00:39;15.52;;;13.77;;
19919;SDS011;10122;50.074;19.920;2022-08-04T00:11:08;18.83;;;14.50;;
19919;SDS011;10122;50.074;19.920;2022-08-04T00:13:38;17.00;;;13.93;;
19919;SDS011;10122;50.074;19.920;2022-08-04T00:16:07;15.52;;;13.30;;
19919;SDS011;10122;50.074;19.920;2022-08-04T00:18:45;14.77;;;13.27;;
19919;SDS011;10122;50.074;19.920;2022-08-04T00:21:18;18.15;;;13.95;;
19919;SDS011;10122;50.074;19.920;2022-08-04T00:23:49;17.25;;;13.57;;
19919;SDS011;10122;50.074;19.920;2022-08-04T00:26:16;14.15;;;12.65;;
19919;SDS011;10122;50.074;19.920;2022-08-04T00:28:42;15.15;;;13.55;;
19919;SDS011;10122;50.074;19.920;2022-08-04T00:31:11;15.20;;;13.52;;
19919;SDS011;10122;50.074;19.920;2022-08-04T00:33:42;15.13;;;13.43;;
19919;SDS011;10122;50.074;19.920;2022-08-04T00:36:12;15.93;;;13.40;;
19919;SDS011;10122;50.074;19.920;2022-08-04T00:38:39;18.02;;;13.40;;
19919;SDS011;10122;50.074;19.920;2022-08-04T00:41:21;17.08;;;13.95;;
19919;SDS011;10122;50.074;19.920;2022-08-04T00:50:08;15.75;;;13.57;;
19919;SDS011;10122;50.074;19.920;2022-08-04T00:53:05;14.60;;;13.10;;
19919;SDS011;10122;50.074;19.920;2022-08-04T01:01:00;17.73;;;13.43;;
19919;SDS011;10122;50.074;19.920;2022-08-04T01:09:25;15.13;;;13.52;;
19919;SDS011;10122;50.074;19.920;2022-08-04T01:12:10;16.02;;;14.10;;
19919;SDS011;10122;50.074;19.920;2022-08-04T01:15:03;15.10;;;13.43;;
19919;SDS011;10122;50.074;19.920;2022-08-04T01:20:26;15.88;;;13.60;;
19919;SDS011;10122;50.074;19.920;2022-08-04T01:28:34;14.23;;;12.82;;
19919;SDS011;10122;50.074;19.920;2022-08-04T01:33:48;16.67;;;14.88;;
19919;SDS011;10122;50.074;19.920;2022-08-04T01:36:17;15.82;;;13.65;;
19919;SDS011;10122;50.074;19.920;2022-08-04T01:38:45;16.38;;;14.20;;
19919;SDS011;10122;50.074;19.920;2022-08-04T01:41:13;17.50;;;14.02;;
19919;SDS011;10122;50.074;19.920;2022-08-04T01:43:43;15.52;;;13.93;;
19919;SDS011;10122;50.074;19.920;2022-08-04T01:46:16;16.00;;;13.55;;
19919;SDS011;10122;50.074;19.920;2022-08-04T01:48:45;15.98;;;13.77;;
19919;SDS011;10122;50.074;19.920;2022-08-04T01:51:17;16.27;;;13.57;;
19919;SDS011;10122;50.074;19.920;2022-08-04T01:53:46;18.85;;;13.43;;
19919;SDS011;10122;50.074;19.920;2022-08-04T01:56:11;14.57;;;12.90;;
19919;SDS011;10122;50.074;19.920;2022-08-04T01:58:37;15.68;;;13.57;;
19919;SDS011;10122;50.074;19.920;2022-08-04T02:01:06;15.82;;;13.23;;
19919;SDS011;10122;50.074;19.920;2022-08-04T02:03:32;14.95;;;13.38;;
19919;SDS011;10122;50.074;19.920;2022-08-04T02:06:22;14.43;;;12.95;;
19919;SDS011;10122;50.074;19.920;2022-08-04T02:09:16;14.18;;;12.68;;
19919;SDS011;10122;50.074;19.920;2022-08-04T02:14:55;15.25;;;12.48;;
19919;SDS011;10122;50.074;19.920;2022-08-04T02:17:28;14.43;;;12.45;;
19919;SDS011;10122;50.074;19.920;2022-08-04T02:20:08;15.52;;;12.60;;
19919;SDS011;10122;50.074;19.920;2022-08-04T02:22:46;13.88;;;12.38;;
19919;SDS011;10122;50.074;19.920;2022-08-04T02:25:21;13.73;;;12.32;;
19919;SDS011;10122;50.074;19.920;2022-08-04T02:33:25;14.55;;;13.10;;
19919;SDS011;10122;50.074;19.920;2022-08-04T02:35:59;14.25;;;12.85;;
19919;SDS011;10122;50.074;19.920;2022-08-04T02:41:06;14.88;;;12.55;;
19919;SDS011;10122;50.074;19.920;2022-08-04T02:43:35;14.70;;;12.65;;
19919;SDS011;10122;50.074;19.920;2022-08-04T02:46:02;15.10;;;13.55;;
19919;SDS011;10122;50.074;19.920;2022-08-04T02:48:30;15.00;;;13.50;;
19919;SDS011;10122;50.074;19.920;2022-08-04T02:50:58;14.55;;;12.80;;
19919;SDS011;10122;50.074;19.920;2022-08-04T02:53:26;15.02;;;12.65;;
19919;SDS011;10122;50.074;19.920;2022-08-04T02:55:54;15.32;;;12.57;;
19919;SDS011;10122;50.074;19.920;2022-08-04T02:58:22;15.52;;;12.75;;
19919;SDS011;10122;50.074;19.920;2022-08-04T03:00:50;14.80;;;13.30;;
19919;SDS011;10122;50.074;19.920;2022-08-04T03:03:29;15.88;;;12.80;;
19919;SDS011;10122;50.074;19.920;2022-08-04T03:20:14;14.10;;;12.52;;
19919;SDS011;10122;50.074;19.920;2022-08-04T03:28:39;15.18;;;12.93;;
19919;SDS011;10122;50.074;19.920;2022-08-04T03:37:10;15.18;;;12.50;;
19919;SDS011;10122;50.074;19.920;2022-08-04T03:45:04;14.63;;;12.32;;
19919;SDS011;10122;50.074;19.920;2022-08-04T03:48:04;14.57;;;12.30;;
19919;SDS011;10122;50.074;19.920;2022-08-04T03:50:41;13.52;;;11.98;;
19919;SDS011;10122;50.074;19.920;2022-08-04T04:04:29;15.88;;;12.18;;
19919;SDS011;10122;50.074;19.920;2022-08-04T04:26:03;13.85;;;12.45;;
19919;SDS011;10122;50.074;19.920;2022-08-04T04:39:31;13.57;;;12.05;;
19919;SDS011;10122;50.074;19.920;2022-08-04T04:42:30;14.13;;;12.05;;
19919;SDS011;10122;50.074;19.920;2022-08-04T04:47:48;15.07;;;12.60;;
19919;SDS011;10122;50.074;19.920;2022-08-04T04:56:16;14.18;;;12.52;;
19919;SDS011;10122;50.074;19.920;2022-08-04T04:58:58;14.20;;;12.02;;
19919;SDS011;10122;50.074;19.920;2022-08-04T05:01:42;15.88;;;13.20;;
19919;SDS011;10122;50.074;19.920;2022-08-04T05:04:56;14.52;;;11.60;;
19919;SDS011;10122;50.074;19.920;2022-08-04T05:16:09;13.63;;;11.60;;
19919;SDS011;10122;50.074;19.920;2022-08-04T05:18:52;14.13;;;12.05;;
19919;SDS011;10122;50.074;19.920;2022-08-04T05:21:36;13.32;;;11.93;;
19919;SDS011;10122;50.074;19.920;2022-08-04T05:24:08;14.02;;;11.98;;
19919;SDS011;10122;50.074;19.920;2022-08-04T05:26:40;18.75;;;12.27;;
19919;SDS011;10122;50.074;19.920;2022-08-04T05:29:10;14.52;;;11.75;;
19919;SDS011;10122;50.074;19.920;2022-08-04T05:31:43;14.68;;;11.85;;
19919;SDS011;10122;50.074;19.920;2022-08-04T05:34:23;13.00;;;11.68;;
19919;SDS011;10122;50.074;19.920;2022-08-04T05:37:02;14.07;;;11.75;;
19919;SDS011;10122;50.074;19.920;2022-08-04T05:39:52;13.48;;;11.18;;
19919;SDS011;10122;50.074;19.920;2022-08-04T05:42:22;14.02;;;10.95;;
19919;SDS011;10122;50.074;19.920;2022-08-04T05:44:49;14.05;;;11.38;;
19919;SDS011;10122;50.074;19.920;2022-08-04T05:47:15;15.73;;;11.10;;
19919;SDS011;10122;50.074;19.920;2022-08-04T05:49:41;12.27;;;10.30;;
19919;SDS011;10122;50.074;19.920;2022-08-04T05:52:09;13.68;;;10.80;;
19919;SDS011;10122;50.074;19.920;2022-08-04T05:54:35;12.93;;;9.45;;
19919;SDS011;10122;50.074;19.920;2022-08-04T05:57:06;11.95;;;10.20;;
19919;SDS011;10122;50.074;19.920;2022-08-04T05:59:33;13.25;;;10.15;;
19919;SDS011;10122;50.074;19.920;2022-08-04T06:02:02;12.52;;;10.23;;
19919;SDS011;10122;50.074;19.920;2022-08-04T06:04:33;11.85;;;9.48;;
19919;SDS011;10122;50.074;19.920;2022-08-04T06:07:01;14.00;;;10.05;;
19919;SDS011;10122;50.074;19.920;2022-08-04T06:09:27;13.93;;;10.70;;
19919;SDS011;10122;50.074;19.920;2022-08-04T06:11:55;12.80;;;10.73;;
19919;SDS011;10122;50.074;19.920;2022-08-04T06:14:41;14.57;;;11.38;;
19919;SDS011;10122;50.074;19.920;2022-08-04T06:17:08;14.73;;;10.43;;
19919;SDS011;10122;50.074;19.920;2022-08-04T06:19:38;14.27;;;10.70;;
19919;SDS011;10122;50.074;19.920;2022-08-04T06:22:05;14.45;;;10.55;;
19919;SDS011;10122;50.074;19.920;2022-08-04T06:24:33;15.55;;;11.10;;
19919;SDS011;10122;50.074;19.920;2022-08-04T06:27:02;13.02;;;10.48;;
19919;SDS011;10122;50.074;19.920;2022-08-04T06:29:28;12.80;;;9.15;;
19919;SDS011;10122;50.074;19.920;2022-08-04T06:32:04;14.05;;;10.02;;
19919;SDS011;10122;50.074;19.920;2022-08-04T06:34:52;13.00;;;9.43;;
19919;SDS011;10122;50.074;19.920;2022-08-04T06:37:20;16.35;;;10.10;;
19919;SDS011;10122;50.074;19.920;2022-08-04T06:39:47;13.50;;;10.27;;
19919;SDS011;10122;50.074;19.920;2022-08-04T06:42:16;13.98;;;9.57;;
19919;SDS011;10122;50.074;19.920;2022-08-04T06:44:43;15.18;;;9.30;;
19919;SDS011;10122;50.074;19.920;2022-08-04T06:47:12;14.45;;;9.98;;
19919;SDS011;10122;50.074;19.920;2022-08-04T06:49:43;12.10;;;8.85;;
19919;SDS011;10122;50.074;19.920;2022-08-04T06:52:11;12.27;;;8.00;;
19919;SDS011;10122;50.074;19.920;2022-08-04T06:54:41;13.80;;;8.63;;
19919;SDS011;10122;50.074;19.920;2022-08-04T06:57:12;9.82;;;7.32;;
19919;SDS011;10122;50.074;19.920;2022-08-04T06:59:40;13.65;;;7.38;;
19919;SDS011;10122;50.074;19.920;2022-08-04T07:02:10;12.02;;;7.88;;
19919;SDS011;10122;50.074;19.920;2022-08-04T07:04:40;17.05;;;8.60;;
19919;SDS011;10122;50.074;19.920;2022-08-04T07:07:06;12.95;;;8.85;;
19919;SDS011;10122;50.074;19.920;2022-08-04T07:09:32;9.18;;;7.15;;
19919;SDS011;10122;50.074;19.920;2022-08-04T07:11:58;14.27;;;6.47;;
19919;SDS011;10122;50.074;19.920;2022-08-04T07:14:25;8.50;;;6.15;;
19919;SDS011;10122;50.074;19.920;2022-08-04T07:16:52;13.55;;;6.72;;
19919;SDS011;10122;50.074;19.920;2022-08-04T07:19:19;9.45;;;6.40;;
19919;SDS011;10122;50.074;19.920;2022-08-04T07:21:44;6.85;;;5.63;;
19919;SDS011;10122;50.074;19.920;2022-08-04T07:24:11;9.82;;;5.25;;
19919;SDS011;10122;50.074;19.920;2022-08-04T07:26:36;7.78;;;5.80;;
19919;SDS011;10122;50.074;19.920;2022-08-04T07:29:02;10.70;;;5.88;;
19919;SDS011;10122;50.074;19.920;2022-08-04T07:31:28;8.15;;;5.28;;
19919;SDS011;10122;50.074;19.920;2022-08-04T07:33:55;7.15;;;5.70;;
19919;SDS011;10122;50.074;19.920;2022-08-04T07:36:22;9.00;;;5.45;;
19919;SDS011;10122;50.074;19.920;2022-08-04T07:38:47;8.25;;;5.40;;
19919;SDS011;10122;50.074;19.920;2022-08-04T07:41:14;8.13;;;6.03;;
19919;SDS011;10122;50.074;19.920;2022-08-04T07:43:45;8.57;;;5.80;;
19919;SDS011;10122;50.074;19.920;2022-08-04T07:46:11;7.38;;;5.93;;
19919;SDS011;10122;50.074;19.920;2022-08-04T07:48:37;8.70;;;6.05;;
19919;SDS011;10122;50.074;19.920;2022-08-04T07:51:03;7.22;;;5.40;;
19919;SDS011;10122;50.074;19.920;2022-08-04T07:53:29;8.80;;;5.38;;
19919;SDS011;10122;50.074;19.920;2022-08-04T07:55:56;7.72;;;5.32;;
19919;SDS011;10122;50.074;19.920;2022-08-04T07:58:22;7.43;;;5.40;;
19919;SDS011;10122;50.074;19.920;2022-08-04T08:00:48;7.43;;;5.20;;
19919;SDS011;10122;50.074;19.920;2022-08-04T08:03:15;7.18;;;5.32;;
19919;SDS011;10122;50.074;19.920;2022-08-04T08:05:41;7.90;;;5.15;;
19919;SDS011;10122;50.074;19.920;2022-08-04T08:08:06;5.70;;;5.20;;
19919;SDS011;10122;50.074;19.920;2022-08-04T08:10:32;6.40;;;5.50;;
19919;SDS011;10122;50.074;19.920;2022-08-04T08:12:58;5.68;;;5.13;;
19919;SDS011;10122;50.074;19.920;2022-08-04T08:15:24;6.10;;;5.10;;
19919;SDS011;10122;50.074;19.920;2022-08-04T08:17:50;5.78;;;4.93;;
19919;SDS011;10122;50.074;19.920;2022-08-04T08:20:16;5.93;;;5.07;;
19919;SDS011;10122;50.074;19.920;2022-08-04T08:22:42;5.25;;;4.75;;
19919;SDS011;10122;50.074;19.920;2022-08-04T08:25:07;6.85;;;5.30;;
19919;SDS011;10122;50.074;19.920;2022-08-04T08:27:35;5.60;;;5.00;;
19919;SDS011;10122;50.074;19.920;2022-08-04T08:30:02;6.10;;;5.03;;
19919;SDS011;10122;50.074;19.920;2022-08-04T08:32:29;5.75;;;5.18;;
19919;SDS011;10122;50.074;19.920;2022-08-04T08:34:54;6.50;;;5.60;;
19919;SDS011;10122;50.074;19.920;2022-08-04T08:45:56;5.72;;;5.13;;
19919;SDS011;10122;50.074;19.920;2022-08-04T08:48:43;6.03;;;4.82;;
19919;SDS011;10122;50.074;19.920;2022-08-04T08:51:28;5.38;;;4.40;;
19919;SDS011;10122;50.074;19.920;2022-08-04T09:11:18;4.72;;;3.60;;
19919;SDS011;10122;50.074;19.920;2022-08-04T09:13:49;6.45;;;3.13;;
19919;SDS011;10122;50.074;19.920;2022-08-04T09:19:18;4.13;;;3.38;;
19919;SDS011;10122;50.074;19.920;2022-08-04T09:24:53;5.15;;;3.53;;
19919;SDS011;10122;50.074;19.920;2022-08-04T09:27:43;9.18;;;3.38;;
19919;SDS011;10122;50.074;19.920;2022-08-04T09:30:30;6.68;;;3.35;;
19919;SDS011;10122;50.074;19.920;2022-08-04T09:33:14;6.97;;;3.35;;
19919;SDS011;10122;50.074;19.920;2022-08-04T09:38:50;3.70;;;3.30;;
19919;SDS011;10122;50.074;19.920;2022-08-04T09:44:27;4.18;;;3.42;;
19919;SDS011;10122;50.074;19.920;2022-08-04T10:00:50;4.63;;;3.38;;
19919;SDS011;10122;50.074;19.920;2022-08-04T10:03:22;4.10;;;3.65;;
19919;SDS011;10122;50.074;19.920;2022-08-04T10:17:19;5.75;;;3.60;;
19919;SDS011;10122;50.074;19.920;2022-08-04T10:20:07;3.70;;;3.40;;
19919;SDS011;10122;50.074;19.920;2022-08-04T10:22:40;4.38;;;3.67;;
19919;SDS011;10122;50.074;19.920;2022-08-04T10:25:24;4.85;;;3.75;;
19919;SDS011;10122;50.074;19.920;2022-08-04T10:28:02;4.55;;;3.30;;
19919;SDS011;10122;50.074;19.920;2022-08-04T10:30:30;5.22;;;3.53;;
19919;SDS011;10122;50.074;19.920;2022-08-04T10:35:45;5.55;;;3.95;;
19919;SDS011;10122;50.074;19.920;2022-08-04T10:40:46;4.03;;;3.70;;
19919;SDS011;10122;50.074;19.920;2022-08-04T10:46:07;4.13;;;3.72;;
19919;SDS011;10122;50.074;19.920;2022-08-04T10:54:18;5.72;;;4.32;;
19919;SDS011;10122;50.074;19.920;2022-08-04T10:57:10;5.10;;;3.90;;
19919;SDS011;10122;50.074;19.920;2022-08-04T10:59:57;5.35;;;3.88;;
19919;SDS011;10122;50.074;19.920;2022-08-04T11:07:51;4.80;;;3.88;;
19919;SDS011;10122;50.074;19.920;2022-08-04T11:10:21;7.13;;;3.90;;
19919;SDS011;10122;50.074;19.920;2022-08-04T11:12:54;4.30;;;3.90;;
19919;SDS011;10122;50.074;19.920;2022-08-04T11:15:45;4.70;;;3.75;;
19919;SDS011;10122;50.074;19.920;2022-08-04T11:21:18;4.60;;;4.15;;
19919;SDS011;10122;50.074;19.920;2022-08-04T11:23:55;6.50;;;4.22;;
19919;SDS011;10122;50.074;19.920;2022-08-04T11:31:54;5.43;;;3.88;;
19919;SDS011;10122;50.074;19.920;2022-08-04T11:34:24;6.70;;;3.95;;
19919;SDS011;10122;50.074;19.920;2022-08-04T11:36:54;4.97;;;3.75;;
19919;SDS011;10122;50.074;19.920;2022-08-04T11:39:37;4.28;;;3.88;;
19919;SDS011;10122;50.074;19.920;2022-08-04T11:42:17;4.50;;;4.10;;
19919;SDS011;10122;50.074;19.920;2022-08-04T11:44:54;5.70;;;4.30;;
19919;SDS011;10122;50.074;19.920;2022-08-04T11:53:02;4.30;;;3.90;;
19919;SDS011;10122;50.074;19.920;2022-08-04T11:55:29;4.50;;;4.10;;
19919;SDS011;10122;50.074;19.920;2022-08-04T11:57:57;4.70;;;4.30;;
19919;SDS011;10122;50.074;19.920;2022-08-04T12:00:24;4.18;;;3.78;;
19919;SDS011;10122;50.074;19.920;2022-08-04T12:03:00;5.88;;;3.92;;
19919;SDS011;10122;50.074;19.920;2022-08-04T12:06:19;4.15;;;3.83;;
19919;SDS011;10122;50.074;19.920;2022-08-04T12:11:04;4.55;;;3.60;;
19919;SDS011;10122;50.074;19.920;2022-08-04T12:16:19;4.32;;;3.92;;
19919;SDS011;10122;50.074;19.920;2022-08-04T12:18:57;4.55;;;4.15;;
19919;SDS011;10122;50.074;19.920;2022-08-04T12:21:33;4.30;;;3.90;;
19919;SDS011;10122;50.074;19.920;2022-08-04T12:24:04;4.30;;;3.90;;
19919;SDS011;10122;50.074;19.920;2022-08-04T12:26:57;4.43;;;4.00;;
19919;SDS011;10122;50.074;19.920;2022-08-04T12:29:29;5.28;;;4.10;;
19919;SDS011;10122;50.074;19.920;2022-08-04T12:37:40;4.50;;;4.10;;
19919;SDS011;10122;50.074;19.920;2022-08-04T12:40:18;4.47;;;4.07;;
19919;SDS011;10122;50.074;19.920;2022-08-04T12:45:35;7.10;;;3.95;;
19919;SDS011;10122;50.074;19.920;2022-08-04T12:48:38;5.43;;;4.00;;
19919;SDS011;10122;50.074;19.920;2022-08-04T12:51:10;4.65;;;4.15;;
19919;SDS011;10122;50.074;19.920;2022-08-04T12:53:40;6.18;;;4.15;;
19919;SDS011;10122;50.074;19.920;2022-08-04T12:56:08;5.40;;;4.15;;
19919;SDS011;10122;50.074;19.920;2022-08-04T12:58:36;4.80;;;3.85;;
19919;SDS011;10122;50.074;19.920;2022-08-04T13:01:10;4.50;;;4.10;;
19919;SDS011;10122;50.074;19.920;2022-08-04T13:03:52;4.90;;;3.97;;
19919;SDS011;10122;50.074;19.920;2022-08-04T13:06:29;4.30;;;3.97;;
19919;SDS011;10122;50.074;19.920;2022-08-04T13:09:04;4.55;;;3.88;;
19919;SDS011;10122;50.074;19.920;2022-08-04T13:11:36;4.53;;;4.13;;
19919;SDS011;10122;50.074;19.920;2022-08-04T13:14:04;4.45;;;4.05;;
19919;SDS011;10122;50.074;19.920;2022-08-04T13:16:31;4.80;;;4.30;;
19919;SDS011;10122;50.074;19.920;2022-08-04T13:18:58;4.68;;;4.10;;
19919;SDS011;10122;50.074;19.920;2022-08-04T13:21:26;5.57;;;4.47;;
19919;SDS011;10122;50.074;19.920;2022-08-04T13:23:57;4.57;;;4.07;;
19919;SDS011;10122;50.074;19.920;2022-08-04T13:26:27;5.20;;;4.30;;
19919;SDS011;10122;50.074;19.920;2022-08-04T13:28:53;4.53;;;4.13;;
19919;SDS011;10122;50.074;19.920;2022-08-04T13:31:25;6.68;;;4.18;;
19919;SDS011;10122;50.074;19.920;2022-08-04T13:33:53;4.47;;;4.07;;
19919;SDS011;10122;50.074;19.920;2022-08-04T13:36:26;5.03;;;4.60;;
19919;SDS011;10122;50.074;19.920;2022-08-04T13:38:54;5.40;;;4.63;;
19919;SDS011;10122;50.074;19.920;2022-08-04T13:41:24;4.75;;;4.05;;
19919;SDS011;10122;50.074;19.920;2022-08-04T13:43:56;5.10;;;4.60;;
19919;SDS011;10122;50.074;19.920;2022-08-04T13:46:33;5.30;;;4.80;;
19919;SDS011;10122;50.074;19.920;2022-08-04T13:49:05;6.05;;;4.25;;
19919;SDS011;10122;50.074;19.920;2022-08-04T13:51:33;6.80;;;5.10;;
19919;SDS011;10122;50.074;19.920;2022-08-04T13:54:00;4.72;;;4.22;;
19919;SDS011;10122;50.074;19.920;2022-08-04T13:56:31;9.27;;;5.85;;
19919;SDS011;10122;50.074;19.920;2022-08-04T13:59:02;5.25;;;4.25;;
19919;SDS011;10122;50.074;19.920;2022-08-04T14:01:31;6.30;;;4.57;;
19919;SDS011;10122;50.074;19.920;2022-08-04T14:06:29;6.82;;;5.55;;
19919;SDS011;10122;50.074;19.920;2022-08-04T14:09:29;4.88;;;4.47;;
19919;SDS011;10122;50.074;19.920;2022-08-04T14:11:52;4.82;;;4.30;;
19919;SDS011;10122;50.074;19.920;2022-08-04T14:14:29;6.03;;;4.20;;
19919;SDS011;10122;50.074;19.920;2022-08-04T14:16:57;5.95;;;4.97;;
19919;SDS011;10122;50.074;19.920;2022-08-04T14:19:27;5.75;;;4.55;;
19919;SDS011;10122;50.074;19.920;2022-08-04T14:24:56;4.50;;;4.10;;
19919;SDS011;10122;50.074;19.920;2022-08-04T14:27:24;5.35;;;4.20;;
19919;SDS011;10122;50.074;19.920;2022-08-04T14:29:52;5.03;;;4.45;;
19919;SDS011;10122;50.074;19.920;2022-08-04T14:32:17;6.15;;;4.38;;
19919;SDS011;10122;50.074;19.920;2022-08-04T14:34:43;4.60;;;4.03;;
19919;SDS011;10122;50.074;19.920;2022-08-04T14:37:11;4.10;;;3.60;;
19919;SDS011;10122;50.074;19.920;2022-08-04T14:39:40;4.72;;;4.32;;
19919;SDS011;10122;50.074;19.920;2022-08-04T14:42:07;5.25;;;3.95;;
19919;SDS011;10122;50.074;19.920;2022-08-04T14:44:53;4.68;;;4.10;;
19919;SDS011;10122;50.074;19.920;2022-08-04T14:50:09;3.92;;;3.53;;
19919;SDS011;10122;50.074;19.920;2022-08-04T14:52:36;5.45;;;4.45;;
19919;SDS011;10122;50.074;19.920;2022-08-04T14:55:18;4.18;;;3.80;;
19919;SDS011;10122;50.074;19.920;2022-08-04T14:57:46;4.80;;;3.72;;
19919;SDS011;10122;50.074;19.920;2022-08-04T15:03:09;4.60;;;4.10;;
19919;SDS011;10122;50.074;19.920;2022-08-04T15:05:40;4.38;;;3.97;;
19919;SDS011;10122;50.074;19.920;2022-08-04T15:08:07;4.63;;;4.10;;
19919;SDS011;10122;50.074;19.920;2022-08-04T15:10:34;6.60;;;4.40;;
19919;SDS011;10122;50.074;19.920;2022-08-04T15:13:00;4.30;;;3.90;;
19919;SDS011;10122;50.074;19.920;2022-08-04T15:15:27;5.75;;;4.20;;
19919;SDS011;10122;50.074;19.920;2022-08-04T15:17:53;4.40;;;4.00;;
19919;SDS011;10122;50.074;19.920;2022-08-04T15:20:19;5.70;;;4.80;;
19919;SDS011;10122;50.074;19.920;2022-08-04T15:22:46;6.05;;;3.97;;
19919;SDS011;10122;50.074;19.920;2022-08-04T15:25:12;6.45;;;4.15;;
19919;SDS011;10122;50.074;19.920;2022-08-04T15:27:38;4.65;;;4.25;;
19919;SDS011;10122;50.074;19.920;2022-08-04T15:30:06;5.97;;;4.40;;
19919;SDS011;10122;50.074;19.920;2022-08-04T15:32:35;6.53;;;4.30;;
19919;SDS011;10122;50.074;19.920;2022-08-04T15:35:09;4.88;;;4.10;;
19919;SDS011;10122;50.074;19.920;2022-08-04T15:43:13;4.57;;;4.18;;
19919;SDS011;10122;50.074;19.920;2022-08-04T15:45:52;4.80;;;4.30;;
19919;SDS011;10122;50.074;19.920;2022-08-04T15:51:23;5.20;;;4.35;;
19919;SDS011;10122;50.074;19.920;2022-08-04T15:56:02;4.13;;;3.72;;
19919;SDS011;10122;50.074;19.920;2022-08-04T15:58:54;5.40;;;4.20;;
19919;SDS011;10122;50.074;19.920;2022-08-04T16:01:20;6.30;;;4.32;;
19919;SDS011;10122;50.074;19.920;2022-08-04T16:03:50;4.30;;;3.90;;
19919;SDS011;10122;50.074;19.920;2022-08-04T16:16:28;6.07;;;4.47;;
19919;SDS011;10122;50.074;19.920;2022-08-04T16:22:00;4.97;;;4.47;;
19919;SDS011;10122;50.074;19.920;2022-08-04T16:27:00;6.22;;;4.20;;
19919;SDS011;10122;50.074;19.920;2022-08-04T16:34:35;4.32;;;3.92;;
19919;SDS011;10122;50.074;19.920;2022-08-04T16:37:04;4.97;;;3.75;;
19919;SDS011;10122;50.074;19.920;2022-08-04T16:39:32;4.82;;;4.10;;
19919;SDS011;10122;50.074;19.920;2022-08-04T16:41:58;4.72;;;4.00;;
19919;SDS011;10122;50.074;19.920;2022-08-04T16:46:58;4.22;;;3.78;;
19919;SDS011;10122;50.074;19.920;2022-08-04T16:49:26;5.45;;;4.00;;
19919;SDS011;10122;50.074;19.920;2022-08-04T16:51:53;5.35;;;3.95;;
19919;SDS011;10122;50.074;19.920;2022-08-04T16:54:24;6.38;;;3.97;;
19919;SDS011;10122;50.074;19.920;2022-08-04T16:56:52;4.75;;;3.83;;
19919;SDS011;10122;50.074;19.920;2022-08-04T16:59:19;6.22;;;3.90;;
19919;SDS011;10122;50.074;19.920;2022-08-04T17:01:49;5.55;;;3.60;;
19919;SDS011;10122;50.074;19.920;2022-08-04T17:04:16;4.80;;;3.95;;
19919;SDS011;10122;50.074;19.920;2022-08-04T17:06:43;5.75;;;4.00;;
19919;SDS011;10122;50.074;19.920;2022-08-04T17:09:16;5.43;;;3.65;;
19919;SDS011;10122;50.074;19.920;2022-08-04T17:11:44;4.00;;;3.60;;
19919;SDS011;10122;50.074;19.920;2022-08-04T17:14:11;4.10;;;3.70;;
19919;SDS011;10122;50.074;19.920;2022-08-04T17:16:38;5.43;;;3.90;;
19919;SDS011;10122;50.074;19.920;2022-08-04T17:19:06;5.03;;;3.50;;
19919;SDS011;10122;50.074;19.920;2022-08-04T17:21:33;4.18;;;3.78;;
19919;SDS011;10122;50.074;19.920;2022-08-04T17:24:01;5.30;;;3.60;;
19919;SDS011;10122;50.074;19.920;2022-08-04T17:26:29;5.60;;;3.72;;
19919;SDS011;10122;50.074;19.920;2022-08-04T17:28:56;5.15;;;3.65;;
19919;SDS011;10122;50.074;19.920;2022-08-04T17:31:24;4.10;;;3.60;;
19919;SDS011;10122;50.074;19.920;2022-08-04T17:33:52;5.55;;;3.90;;
19919;SDS011;10122;50.074;19.920;2022-08-04T17:36:22;4.13;;;3.70;;
19919;SDS011;10122;50.074;19.920;2022-08-04T17:38:50;5.18;;;3.80;;
19919;SDS011;10122;50.074;19.920;2022-08-04T17:41:23;4.07;;;3.50;;
19919;SDS011;10122;50.074;19.920;2022-08-04T17:43:57;5.90;;;3.90;;
19919;SDS011;10122;50.074;19.920;2022-08-04T17:51:32;6.93;;;3.70;;
19919;SDS011;10122;50.074;19.920;2022-08-04T17:54:03;5.38;;;4.07;;
19919;SDS011;10122;50.074;19.920;2022-08-04T17:56:30;7.22;;;4.03;;
19919;SDS011;10122;50.074;19.920;2022-08-04T17:59:11;5.00;;;3.90;;
19919;SDS011;10122;50.074;19.920;2022-08-04T18:02:02;5.82;;;3.88;;
19919;SDS011;10122;50.074;19.920;2022-08-04T18:04:31;7.63;;;4.05;;
19919;SDS011;10122;50.074;19.920;2022-08-04T18:07:00;6.40;;;3.83;;
19919;SDS011;10122;50.074;19.920;2022-08-04T18:09:29;4.28;;;3.80;;
19919;SDS011;10122;50.074;19.920;2022-08-04T18:11:59;6.13;;;4.10;;
19919;SDS011;10122;50.074;19.920;2022-08-04T18:14:36;5.68;;;4.05;;
19919;SDS011;10122;50.074;19.920;2022-08-04T18:17:34;6.13;;;3.90;;
19919;SDS011;10122;50.074;19.920;2022-08-04T18:20:05;7.40;;;3.90;;
19919;SDS011;10122;50.074;19.920;2022-08-04T18:22:33;8.07;;;3.90;;
19919;SDS011;10122;50.074;19.920;2022-08-04T18:24:59;4.30;;;3.90;;
19919;SDS011;10122;50.074;19.920;2022-08-04T18:27:26;4.13;;;3.72;;
19919;SDS011;10122;50.074;19.920;2022-08-04T18:29:53;4.03;;;3.63;;
19919;SDS011;10122;50.074;19.920;2022-08-04T18:32:19;4.30;;;3.60;;
19919;SDS011;10122;50.074;19.920;2022-08-04T18:34:47;6.15;;;3.88;;
19919;SDS011;10122;50.074;19.920;2022-08-04T18:37:14;4.68;;;3.90;;
19919;SDS011;10122;50.074;19.920;2022-08-04T18:39:40;6.07;;;4.10;;
19919;SDS011;10122;50.074;19.920;2022-08-04T18:42:06;4.25;;;3.70;;
19919;SDS011;10122;50.074;19.920;2022-08-04T18:44:32;5.35;;;3.80;;
19919;SDS011;10122;50.074;19.920;2022-08-04T18:46:58;7.10;;;3.90;;
19919;SDS011;10122;50.074;19.920;2022-08-04T18:49:24;6.40;;;4.05;;
19919;SDS011;10122;50.074;19.920;2022-08-04T18:51:51;5.93;;;3.72;;
19919;SDS011;10122;50.074;19.920;2022-08-04T18:54:20;5.25;;;4.20;;
19919;SDS011;10122;50.074;19.920;2022-08-04T18:56:51;5.00;;;4.20;;
19919;SDS011;10122;50.074;19.920;2022-08-04T18:59:18;4.78;;;3.90;;
19919;SDS011;10122;50.074;19.920;2022-08-04T19:01:45;5.30;;;3.90;;
19919;SDS011;10122;50.074;19.920;2022-08-04T19:04:11;5.85;;;4.10;;
19919;SDS011;10122;50.074;19.920;2022-08-04T19:06:37;6.90;;;4.03;;
19919;SDS011;10122;50.074;19.920;2022-08-04T19:09:05;4.18;;;3.78;;
19919;SDS011;10122;50.074;19.920;2022-08-04T19:11:31;5.40;;;4.25;;
19919;SDS011;10122;50.074;19.920;2022-08-04T19:13:58;4.70;;;4.20;;
19919;SDS011;10122;50.074;19.920;2022-08-04T19:16:25;7.22;;;4.18;;
19919;SDS011;10122;50.074;19.920;2022-08-04T19:18:55;6.53;;;4.22;;
19919;SDS011;10122;50.074;19.920;2022-08-04T19:21:22;5.15;;;4.40;;
19919;SDS011;10122;50.074;19.920;2022-08-04T19:23:48;5.40;;;4.30;;
19919;SDS011;10122;50.074;19.920;2022-08-04T19:26:14;6.82;;;4.95;;
19919;SDS011;10122;50.074;19.920;2022-08-04T19:28:40;5.40;;;4.20;;
19919;SDS011;10122;50.074;19.920;2022-08-04T19:31:07;5.47;;;4.40;;
19919;SDS011;10122;50.074;19.920;2022-08-04T19:33:34;4.93;;;4.45;;
19919;SDS011;10122;50.074;19.920;2022-08-04T19:35:59;4.93;;;4.25;;
19919;SDS011;10122;50.074;19.920;2022-08-04T19:38:25;5.47;;;4.20;;
19919;SDS011;10122;50.074;19.920;2022-08-04T19:40:53;4.85;;;4.35;;
19919;SDS011;10122;50.074;19.920;2022-08-04T19:43:19;5.28;;;4.70;;
19919;SDS011;10122;50.074;19.920;2022-08-04T19:45:45;5.43;;;4.20;;
19919;SDS011;10122;50.074;19.920;2022-08-04T19:48:11;9.55;;;4.53;;